createdAt,value
2018-12-15T00:00:32.398Z,-0.60
2018-12-15T00:05:27.666Z,-0.60
2018-12-15T00:10:24.167Z,-0.60
2018-12-15T00:20:40.753Z,-0.40
2018-12-15T00:25:35.416Z,-0.60
2018-12-15T00:35:33.823Z,-0.70
2018-12-15T00:40:34.292Z,-0.80
2018-12-15T00:50:33.790Z,-0.80
2018-12-15T01:00:34.383Z,-0.70
2018-12-15T01:05:33.887Z,-0.70
2018-12-15T01:10:34.787Z,-0.60
2018-12-15T01:20:39.455Z,-0.50
2018-12-15T01:30:39.303Z,-0.50
2018-12-15T01:35:33.979Z,-0.70
2018-12-15T01:40:33.606Z,-0.60
2018-12-15T01:45:31.629Z,-0.70
2018-12-15T01:50:27.569Z,-0.70
2018-12-15T01:55:34.021Z,-0.70
2018-12-15T02:00:35.327Z,-0.80
2018-12-15T02:05:30.680Z,-0.70
2018-12-15T02:10:25.454Z,-0.80
2018-12-15T02:15:31.473Z,-0.80
2018-12-15T02:20:26.289Z,-1.00
2018-12-15T02:25:20.923Z,-1.00
2018-12-15T02:30:15.577Z,-1.10
2018-12-15T02:35:10.202Z,-1.10
2018-12-15T02:40:06.824Z,-1.10
2018-12-15T02:45:01.494Z,-1.00
2018-12-15T02:49:56.091Z,-1.10
2018-12-15T02:54:50.704Z,-1.00
2018-12-15T02:59:45.443Z,-1.10
2018-12-15T03:04:40.057Z,-1.10
2018-12-15T03:09:34.668Z,-1.10
2018-12-15T03:14:29.278Z,-1.10
2018-12-15T03:19:23.869Z,-1.10
2018-12-15T03:24:18.454Z,-1.00
2018-12-15T03:29:13.083Z,-1.10
2018-12-15T03:34:07.663Z,-1.10
2018-12-15T03:39:02.299Z,-1.10
2018-12-15T03:43:56.927Z,-1.10
2018-12-15T03:48:51.560Z,-1.10
2018-12-15T03:53:46.199Z,-1.10
2018-12-15T03:58:40.835Z,-1.10
2018-12-15T04:03:35.434Z,-1.10
2018-12-15T04:08:30.100Z,-1.20
2018-12-15T04:13:24.716Z,-1.20
2018-12-15T04:18:19.330Z,-1.30
2018-12-15T04:23:14.167Z,-1.20
2018-12-15T04:28:08.793Z,-1.30
2018-12-15T04:33:31.438Z,-1.30
2018-12-15T04:48:38.853Z,-1.30
2018-12-15T04:53:34.432Z,-1.30
2018-12-15T05:03:34.005Z,-1.30
2018-12-15T05:13:39.860Z,-1.10
2018-12-15T05:23:34.573Z,-1.30
2018-12-15T05:28:34.274Z,-1.30
2018-12-15T05:38:33.604Z,-1.30
2018-12-15T05:48:34.212Z,-1.40
2018-12-15T05:53:33.908Z,-1.30
2018-12-15T06:14:31.233Z,-1.30
2018-12-15T06:19:33.507Z,-1.30
2018-12-15T06:29:34.178Z,-1.30
2018-12-15T06:50:17.523Z,-1.40
2018-12-15T06:55:12.197Z,-1.30
2018-12-15T07:00:07.695Z,-1.20
2018-12-15T07:05:02.284Z,-1.10
2018-12-15T07:09:56.938Z,-1.10
2018-12-15T07:14:51.571Z,-1.10
2018-12-15T07:19:46.372Z,-1.00
2018-12-15T07:24:41.975Z,-1.00
2018-12-15T07:29:38.021Z,-1.00
2018-12-15T07:34:32.725Z,-1.00
2018-12-15T07:39:28.600Z,-0.90
2018-12-15T07:44:23.824Z,-1.00
2018-12-15T07:49:18.550Z,-1.00
2018-12-15T07:54:13.320Z,-1.00
2018-12-15T07:59:10.137Z,-1.10
2018-12-15T08:04:04.964Z,-0.90
2018-12-15T08:08:59.645Z,-1.00
2018-12-15T08:13:58.348Z,-0.90
2018-12-15T08:18:58.071Z,-0.90
2018-12-15T08:23:49.612Z,-1.00
2018-12-15T08:28:44.223Z,-0.90
2018-12-15T08:33:38.861Z,-0.90
2018-12-15T08:38:33.482Z,-0.90
2018-12-15T08:43:28.150Z,-0.80
2018-12-15T09:04:30.473Z,-0.40
2018-12-15T09:09:33.892Z,-0.20
2018-12-15T09:30:33.871Z,-0.10
2018-12-15T09:45:34.471Z,0.00
2018-12-15T09:50:35.093Z,0.00
2018-12-15T10:00:34.444Z,0.00
2018-12-15T10:32:04.376Z,0.10
2018-12-15T10:36:58.969Z,0.10
2018-12-15T10:41:53.644Z,0.10
2018-12-15T10:46:48.408Z,0.20
2018-12-15T10:51:43.192Z,0.10
2018-12-15T10:56:37.929Z,0.10
2018-12-15T11:01:32.863Z,-0.10
2018-12-15T11:06:27.479Z,-0.10
2018-12-15T11:11:22.165Z,-0.10
2018-12-15T11:16:17.041Z,0.00
2018-12-15T11:21:11.687Z,0.00
2018-12-15T11:26:06.369Z,0.20
2018-12-15T11:31:01.229Z,0.30
2018-12-15T11:35:56.048Z,0.30
2018-12-15T11:40:50.664Z,0.20
2018-12-15T11:45:45.364Z,0.10
2018-12-15T11:50:40.180Z,0.10
2018-12-15T11:55:34.925Z,0.20
2018-12-15T12:00:29.604Z,0.30
2018-12-15T12:05:24.294Z,0.40
2018-12-15T12:10:19.005Z,0.50
2018-12-15T12:15:13.636Z,0.50
2018-12-15T12:20:09.480Z,0.40
2018-12-15T12:25:04.375Z,0.30
2018-12-15T12:29:59.028Z,0.30
2018-12-15T12:34:53.777Z,0.30
2018-12-15T12:39:48.403Z,0.40
2018-12-15T12:44:43.538Z,0.40
2018-12-15T12:49:38.164Z,0.60
2018-12-15T12:54:32.815Z,0.60
2018-12-15T12:59:27.517Z,0.70
2018-12-15T13:04:22.191Z,0.50
2018-12-15T13:09:16.820Z,0.40
2018-12-15T13:14:11.586Z,0.30
2018-12-15T13:19:06.319Z,0.40
2018-12-15T13:24:00.991Z,0.20
2018-12-15T13:28:55.603Z,0.10
2018-12-15T13:33:50.237Z,0.10
2018-12-15T13:38:45.160Z,0.00
2018-12-15T13:43:39.930Z,-0.10
2018-12-15T13:48:34.617Z,-0.10
2018-12-15T13:53:29.323Z,-0.20
2018-12-15T13:58:23.985Z,-0.10
2018-12-15T14:03:18.650Z,-0.20
2018-12-15T14:08:13.261Z,-0.30
2018-12-15T14:13:08.047Z,-0.40
2018-12-15T14:18:02.837Z,-0.60
2018-12-15T14:22:57.611Z,-0.70
2018-12-15T14:27:52.236Z,-0.80
2018-12-15T14:32:49.940Z,-0.80
2018-12-15T14:37:47.085Z,-0.70
2018-12-15T14:42:41.710Z,-0.70
2018-12-15T14:47:50.455Z,-0.70
2018-12-15T14:52:45.164Z,-0.80
2018-12-15T14:57:39.918Z,-0.80
2018-12-15T15:02:34.573Z,-0.90
2018-12-15T15:07:29.257Z,-0.90
2018-12-15T15:12:23.983Z,-0.90
2018-12-15T15:17:18.646Z,-0.90
2018-12-15T15:22:17.291Z,-0.90
2018-12-15T15:27:13.473Z,-1.00
2018-12-15T15:32:10.124Z,-1.10
2018-12-15T15:37:06.439Z,-1.10
2018-12-15T15:42:01.149Z,-1.10
2018-12-15T15:46:55.903Z,-1.10
2018-12-15T15:51:50.574Z,-1.20
2018-12-15T15:56:45.233Z,-1.20
2018-12-15T16:01:39.963Z,-1.30
2018-12-15T16:06:34.634Z,-1.30
2018-12-15T16:11:32.610Z,-1.30
2018-12-15T16:16:35.527Z,-1.40
2018-12-15T16:21:30.469Z,-1.60
2018-12-15T16:26:25.398Z,-1.80
2018-12-15T16:31:20.298Z,-1.80
2018-12-15T16:36:15.740Z,-1.90
2018-12-15T16:41:11.082Z,-1.90
2018-12-15T16:46:06.056Z,-1.90
2018-12-15T16:51:00.682Z,-2.20
2018-12-15T16:55:58.508Z,-2.10
2018-12-15T17:00:56.303Z,-2.10
2018-12-15T17:05:54.193Z,-2.20
2018-12-15T17:10:48.782Z,-2.30
2018-12-15T17:15:44.169Z,-2.30
2018-12-15T17:20:45.850Z,-2.40
2018-12-15T17:25:42.531Z,-2.60
2018-12-15T17:30:44.992Z,-2.50
2018-12-15T17:35:39.687Z,-2.40
2018-12-15T17:41:05.249Z,-2.50
2018-12-15T17:45:59.886Z,-2.50
2018-12-15T17:50:54.497Z,-2.90
2018-12-15T18:01:39.042Z,-2.70
2018-12-15T18:06:41.245Z,-2.90
2018-12-15T18:11:51.069Z,-3.20
2018-12-15T18:16:45.864Z,-3.30
2018-12-15T18:21:42.980Z,-3.20
2018-12-15T18:26:43.643Z,-3.10
2018-12-15T18:31:38.485Z,-3.20
2018-12-15T18:42:02.802Z,-3.10
2018-12-15T18:47:01.039Z,-3.20
2018-12-15T18:51:56.026Z,-3.10
2018-12-15T18:56:51.228Z,-3.30
2018-12-15T19:01:46.026Z,-3.50
2018-12-15T19:06:43.677Z,-3.50
2018-12-15T19:11:48.376Z,-3.40
2018-12-15T19:16:43.788Z,-3.40
2018-12-15T19:21:42.240Z,-3.60
2018-12-15T19:26:37.460Z,-3.70
2018-12-15T19:31:32.149Z,-3.80
2018-12-15T19:36:26.893Z,-3.80
2018-12-15T19:41:22.615Z,-3.70
2018-12-15T19:46:18.345Z,-3.60
2018-12-15T19:51:13.047Z,-3.90
2018-12-15T19:56:07.996Z,-3.90
2018-12-15T20:01:02.904Z,-4.10
2018-12-15T20:05:57.722Z,-3.90
2018-12-15T20:10:52.664Z,-3.90
2018-12-15T20:15:47.437Z,-3.80
2018-12-15T20:20:42.410Z,-3.70
2018-12-15T20:25:37.300Z,-3.70
2018-12-15T20:30:32.096Z,-3.70
2018-12-15T20:35:26.845Z,-3.60
2018-12-15T20:40:21.543Z,-3.70
2018-12-15T20:45:16.251Z,-3.70
2018-12-15T20:50:11.145Z,-3.80
2018-12-15T20:55:06.315Z,-4.00
2018-12-15T21:00:01.393Z,-4.00
2018-12-15T21:32:57.137Z,-3.90
2018-12-15T23:35:14.821Z,-3.30
